createdAt,value
2022-12-20T00:03:36.095Z,6.8
2022-12-20T00:09:08.007Z,6.75
2022-12-20T00:14:39.732Z,6.61
2022-12-20T00:20:11.225Z,6.51
2022-12-20T00:25:43.344Z,6.56
2022-12-20T00:31:14.899Z,6.61
2022-12-20T00:36:46.664Z,6.56
2022-12-20T00:42:18.126Z,6.45
2022-12-20T00:47:50.027Z,6.43
2022-12-20T00:53:28.183Z,6.52
2022-12-20T00:58:59.722Z,6.33
2022-12-20T01:04:31.430Z,6.47
2022-12-20T01:10:03.381Z,6.47
2022-12-20T01:15:34.863Z,6.47
2022-12-20T01:21:06.519Z,6.51
2022-12-20T01:26:38.285Z,6.33
2022-12-20T01:32:10.225Z,6.19
2022-12-20T01:37:41.752Z,6.3
2022-12-20T01:43:13.610Z,6.31
2022-12-20T01:48:45.212Z,6.25
2022-12-20T01:54:21.303Z,6.43
2022-12-20T01:59:53.037Z,6.41
2022-12-20T02:05:25.700Z,6.38
2022-12-20T02:10:56.626Z,6.43
2022-12-20T02:16:28.529Z,6.49
2022-12-20T02:21:59.934Z,6.57
2022-12-20T02:27:31.805Z,6.46
2022-12-20T02:33:03.409Z,6.32
2022-12-20T02:38:35.323Z,6.37
2022-12-20T02:44:07.079Z,6.36
2022-12-20T02:49:38.771Z,6.39
2022-12-20T02:55:14.640Z,6.47
2022-12-20T03:00:46.554Z,6.44
2022-12-20T03:06:18.886Z,6.52
2022-12-20T03:11:50.008Z,6.35
2022-12-20T03:17:21.770Z,6.38
2022-12-20T03:22:53.506Z,6.33
2022-12-20T03:28:25.197Z,6.19
2022-12-20T03:33:56.921Z,6.26
2022-12-20T03:39:28.676Z,6.31
2022-12-20T03:45:00.300Z,6.44
2022-12-20T03:50:32.089Z,6.46
2022-12-20T03:56:08.196Z,6.5
2022-12-20T04:01:40.187Z,6.71
2022-12-20T04:07:11.624Z,6.59
2022-12-20T04:12:43.126Z,6.46
2022-12-20T04:18:15.051Z,6.51
2022-12-20T04:23:46.777Z,6.59
2022-12-20T04:29:18.672Z,6.73
2022-12-20T04:34:50.047Z,6.89
2022-12-20T04:40:21.914Z,6.97
2022-12-20T04:45:53.784Z,7.06
2022-12-20T04:51:25.192Z,7.07
2022-12-20T04:57:03.307Z,7.06
2022-12-20T05:02:35.125Z,6.89
2022-12-20T05:08:06.982Z,6.89
2022-12-20T05:13:38.692Z,6.73
2022-12-20T05:19:10.429Z,6.73
2022-12-20T05:24:42.151Z,6.96
2022-12-20T05:30:13.960Z,6.97
2022-12-20T05:35:45.393Z,6.99
2022-12-20T05:41:17.113Z,6.78
2022-12-20T05:46:49.553Z,6.93
2022-12-20T05:52:20.552Z,6.92
2022-12-20T05:57:56.878Z,6.87
2022-12-20T06:03:28.590Z,6.98
2022-12-20T06:09:00.278Z,7.06
2022-12-20T06:14:32.058Z,7.06
2022-12-20T06:20:03.540Z,6.96
2022-12-20T06:25:35.215Z,7.07
2022-12-20T06:31:06.982Z,7.12
2022-12-20T06:36:38.786Z,7.4
2022-12-20T06:42:10.421Z,7.37
2022-12-20T06:47:42.268Z,7.33
2022-12-20T06:53:13.995Z,7.23
2022-12-20T06:58:51.970Z,7.43
2022-12-20T07:04:23.872Z,7.23
2022-12-20T07:09:55.578Z,7.25
2022-12-20T07:15:27.296Z,7.37
2022-12-20T07:20:59.164Z,7.47
2022-12-20T07:26:30.721Z,7.33
2022-12-20T07:32:02.582Z,7.34
2022-12-20T07:37:34.912Z,7.29
2022-12-20T07:43:06.070Z,7.33
2022-12-20T07:48:37.497Z,7.44
2022-12-20T07:54:09.509Z,7.52
2022-12-20T07:59:45.533Z,7.66
2022-12-20T08:05:17.238Z,7.73
2022-12-20T08:10:49.038Z,7.76
2022-12-20T08:16:21.698Z,7.81
2022-12-20T08:21:52.245Z,7.78
2022-12-20T08:27:24.164Z,7.85
2022-12-20T08:32:55.868Z,7.85
2022-12-20T08:38:27.753Z,7.96
2022-12-20T08:43:59.273Z,8.09
2022-12-20T08:49:30.784Z,8.08
2022-12-20T08:55:05.176Z,8.13
2022-12-20T09:00:38.822Z,8.15
2022-12-20T09:06:10.340Z,8.39
2022-12-20T09:11:42.085Z,8.27
2022-12-20T09:17:13.795Z,8.32
2022-12-20T09:22:45.542Z,8.42
2022-12-20T09:28:17.747Z,8.51
2022-12-20T09:33:48.986Z,8.67
2022-12-20T09:39:20.708Z,8.45
2022-12-20T09:44:52.629Z,8.62
2022-12-20T09:50:24.285Z,8.88
2022-12-20T09:55:55.991Z,9.17
2022-12-20T10:01:38.572Z,9.39
2022-12-20T10:07:05.979Z,9.39
2022-12-20T10:12:37.495Z,9.42
2022-12-20T10:18:09.202Z,9.41
2022-12-20T10:23:41.129Z,9.58
2022-12-20T10:29:12.630Z,9.8
2022-12-20T10:34:48.468Z,9.98
2022-12-20T10:40:16.265Z,9.78
2022-12-20T10:45:48.099Z,9.68
2022-12-20T10:51:19.536Z,9.74
2022-12-20T10:56:51.452Z,9.75
2022-12-20T11:02:29.250Z,9.66
2022-12-20T11:08:35.273Z,9.63
2022-12-20T11:13:30.768Z,9.8
2022-12-20T11:19:03.300Z,9.79
2022-12-20T11:24:34.732Z,9.76
2022-12-20T11:30:06.107Z,9.95
2022-12-20T11:35:37.796Z,10.0
2022-12-20T11:41:09.432Z,10.11
2022-12-20T11:46:41.151Z,10.11
2022-12-20T11:52:13.176Z,10.06
2022-12-20T11:58:09.330Z,9.97
2022-12-20T12:03:20.701Z,9.97
2022-12-20T12:08:52.377Z,9.99
2022-12-20T12:14:24.399Z,9.89
2022-12-20T12:19:56.067Z,10.02
2022-12-20T12:25:27.621Z,10.09
2022-12-20T12:30:59.322Z,10.29
2022-12-20T12:36:31.078Z,10.32
2022-12-20T12:42:02.774Z,10.33
2022-12-20T12:47:34.493Z,10.38
2022-12-20T12:53:06.914Z,10.35
2022-12-20T12:58:40.235Z,10.51
2022-12-20T13:04:14.085Z,10.46
2022-12-20T13:09:45.785Z,10.19
2022-12-20T13:15:17.506Z,10.25
2022-12-20T13:20:50.160Z,10.32
2022-12-20T13:26:20.958Z,10.41
2022-12-20T13:31:54.519Z,10.54
2022-12-20T13:37:25.105Z,10.43
2022-12-20T13:42:56.090Z,10.43
2022-12-20T13:48:28.059Z,10.23
2022-12-20T13:53:59.556Z,10.22
2022-12-20T13:59:31.577Z,10.39
2022-12-20T14:05:07.388Z,10.52
2022-12-20T14:10:39.122Z,10.24
2022-12-20T14:16:10.840Z,10.26
2022-12-20T14:21:42.547Z,10.15
2022-12-20T14:27:14.552Z,10.12
2022-12-20T14:32:46.008Z,10.15
2022-12-20T14:38:18.076Z,10.11
2022-12-20T14:43:49.555Z,10.28
2022-12-20T14:49:21.316Z,10.17
2022-12-20T14:55:08.152Z,10.1
2022-12-20T15:00:24.636Z,10.13
2022-12-20T15:06:02.867Z,9.95
2022-12-20T15:11:34.492Z,10.04
2022-12-20T15:17:06.204Z,10.04
2022-12-20T15:22:37.953Z,10.04
2022-12-20T15:28:09.682Z,10.09
2022-12-20T15:33:41.609Z,10.03
2022-12-20T15:39:14.059Z,10.05
2022-12-20T15:44:44.849Z,9.94
2022-12-20T15:50:16.539Z,9.9
2022-12-20T15:55:48.310Z,9.8
2022-12-20T16:01:20.340Z,9.97
2022-12-20T16:06:56.221Z,10.08
2022-12-20T16:12:28.029Z,10.24
2022-12-20T16:17:59.794Z,10.05
2022-12-20T16:23:31.607Z,10.08
2022-12-20T16:29:02.988Z,9.99
2022-12-20T16:34:34.689Z,9.84
2022-12-20T16:40:06.681Z,9.74
2022-12-20T16:45:38.157Z,9.66
2022-12-20T16:51:10.055Z,9.57
2022-12-20T16:56:41.728Z,9.5
2022-12-20T17:02:14.179Z,9.64
2022-12-20T17:07:49.637Z,9.7
2022-12-20T17:13:21.259Z,9.72
2022-12-20T17:18:52.853Z,9.66
2022-12-20T17:24:24.784Z,9.57
2022-12-20T17:29:56.496Z,9.78
2022-12-20T17:35:28.049Z,9.71
2022-12-20T17:40:59.770Z,9.76
2022-12-20T17:46:31.613Z,9.5
2022-12-20T17:52:03.200Z,9.64
2022-12-20T17:57:35.037Z,9.81
2022-12-20T18:03:07.026Z,9.87
2022-12-20T18:08:45.208Z,9.82
2022-12-20T18:14:16.562Z,9.71
2022-12-20T18:19:48.399Z,9.55
2022-12-20T18:25:19.976Z,9.77
2022-12-20T18:30:51.929Z,9.77
2022-12-20T18:36:23.576Z,9.86
2022-12-20T18:41:55.115Z,9.87
2022-12-20T18:47:26.837Z,9.8
2022-12-20T18:53:01.229Z,9.97
2022-12-20T18:58:30.528Z,10.0
2022-12-20T19:04:02.185Z,10.01
2022-12-20T19:09:38.340Z,10.02
2022-12-20T19:15:09.880Z,10.03
2022-12-20T19:20:42.136Z,10.03
2022-12-20T19:26:13.421Z,10.14
2022-12-20T19:31:45.308Z,10.28
2022-12-20T19:37:16.681Z,10.27
2022-12-20T19:42:48.427Z,10.44
2022-12-20T19:48:20.207Z,10.56
2022-12-20T19:53:51.925Z,10.73
2022-12-20T19:59:23.902Z,10.99
2022-12-20T20:04:55.708Z,11.1
2022-12-20T20:10:31.838Z,11.28
2022-12-20T20:16:03.420Z,11.3
2022-12-20T20:21:35.292Z,11.36
2022-12-20T20:27:06.712Z,11.24
2022-12-20T20:32:38.478Z,11.33
2022-12-20T20:38:10.897Z,11.14
2022-12-20T20:43:42.057Z,11.31
2022-12-20T20:49:13.599Z,11.02
2022-12-20T20:54:45.306Z,10.9
2022-12-20T21:00:17.265Z,10.74
2022-12-20T21:11:27.608Z,10.3
2022-12-20T21:16:58.553Z,10.08
2022-12-20T21:22:30.453Z,10.37
2022-12-20T21:28:02.500Z,10.44
2022-12-20T21:33:34.078Z,10.44
2022-12-20T21:39:05.473Z,10.56
2022-12-20T21:44:37.148Z,10.55
2022-12-20T21:50:08.853Z,10.77
2022-12-20T21:55:40.593Z,10.74
2022-12-20T22:01:12.389Z,10.83
2022-12-20T22:06:44.059Z,10.76
2022-12-20T22:12:20.561Z,11.0
2022-12-20T22:17:51.940Z,11.0
2022-12-20T22:23:23.664Z,10.84
2022-12-20T22:28:55.369Z,10.86
2022-12-20T22:34:27.122Z,10.83
2022-12-20T22:39:58.827Z,10.85
2022-12-20T22:45:30.849Z,10.78
2022-12-20T22:51:02.294Z,10.78
2022-12-20T22:56:34.161Z,10.74
2022-12-20T23:02:05.862Z,10.57
2022-12-20T23:07:37.466Z,10.67
2022-12-20T23:13:13.690Z,10.68
2022-12-20T23:18:45.282Z,10.72
2022-12-20T23:24:17.150Z,10.78
2022-12-20T23:29:48.783Z,10.76
2022-12-20T23:35:20.460Z,10.83
2022-12-20T23:40:52.165Z,10.88
2022-12-20T23:46:25.284Z,10.84
2022-12-20T23:51:55.730Z,10.94
2022-12-20T23:57:27.335Z,11.15
